sensor_id;sensor_type;location;lat;lon;timestamp;P1;durP1;ratioP1;P2;durP2;ratioP2
46897;SDS011;32646;50.958;6.258;2023-02-05T00:00:54;38.15;;;14.60;;
46897;SDS011;32646;50.958;6.258;2023-02-05T00:03:20;42.63;;;16.73;;
46897;SDS011;32646;50.958;6.258;2023-02-05T00:05:47;37.90;;;15.50;;
46897;SDS011;32646;50.958;6.258;2023-02-05T00:08:13;45.22;;;17.23;;
46897;SDS011;32646;50.958;6.258;2023-02-05T00:10:40;37.35;;;13.32;;
46897;SDS011;32646;50.958;6.258;2023-02-05T00:13:06;41.20;;;14.38;;
46897;SDS011;32646;50.958;6.258;2023-02-05T00:15:34;39.33;;;14.95;;
46897;SDS011;32646;50.958;6.258;2023-02-05T00:18:04;33.28;;;15.23;;
46897;SDS011;32646;50.958;6.258;2023-02-05T00:20:31;31.30;;;14.88;;
46897;SDS011;32646;50.958;6.258;2023-02-05T00:22:57;38.42;;;15.27;;
46897;SDS011;32646;50.958;6.258;2023-02-05T00:25:24;36.45;;;13.82;;
46897;SDS011;32646;50.958;6.258;2023-02-05T00:27:50;35.47;;;14.40;;
46897;SDS011;32646;50.958;6.258;2023-02-05T00:30:17;37.63;;;15.48;;
46897;SDS011;32646;50.958;6.258;2023-02-05T00:32:44;38.65;;;15.43;;
46897;SDS011;32646;50.958;6.258;2023-02-05T00:35:10;40.35;;;15.05;;
46897;SDS011;32646;50.958;6.258;2023-02-05T00:37:37;38.88;;;15.35;;
46897;SDS011;32646;50.958;6.258;2023-02-05T00:40:04;45.50;;;15.75;;
46897;SDS011;32646;50.958;6.258;2023-02-05T00:42:31;41.67;;;15.30;;
46897;SDS011;32646;50.958;6.258;2023-02-05T00:44:57;38.63;;;15.43;;
46897;SDS011;32646;50.958;6.258;2023-02-05T00:47:24;38.72;;;14.90;;
46897;SDS011;32646;50.958;6.258;2023-02-05T00:49:50;43.47;;;16.05;;
46897;SDS011;32646;50.958;6.258;2023-02-05T00:52:17;36.30;;;15.38;;
46897;SDS011;32646;50.958;6.258;2023-02-05T00:54:44;32.03;;;15.60;;
46897;SDS011;32646;50.958;6.258;2023-02-05T00:57:10;37.80;;;15.00;;
46897;SDS011;32646;50.958;6.258;2023-02-05T00:59:37;42.42;;;17.55;;
46897;SDS011;32646;50.958;6.258;2023-02-05T01:02:03;47.13;;;15.88;;
46897;SDS011;32646;50.958;6.258;2023-02-05T01:04:30;39.90;;;15.70;;
46897;SDS011;32646;50.958;6.258;2023-02-05T01:06:56;40.97;;;15.32;;
46897;SDS011;32646;50.958;6.258;2023-02-05T01:09:23;43.95;;;16.05;;
46897;SDS011;32646;50.958;6.258;2023-02-05T01:11:49;45.75;;;17.00;;
46897;SDS011;32646;50.958;6.258;2023-02-05T01:14:16;41.00;;;14.70;;
46897;SDS011;32646;50.958;6.258;2023-02-05T01:16:43;40.10;;;14.95;;
46897;SDS011;32646;50.958;6.258;2023-02-05T01:19:09;40.08;;;13.98;;
46897;SDS011;32646;50.958;6.258;2023-02-05T01:21:36;43.33;;;14.40;;
46897;SDS011;32646;50.958;6.258;2023-02-05T01:24:03;41.08;;;14.65;;
46897;SDS011;32646;50.958;6.258;2023-02-05T01:26:30;37.92;;;13.25;;
46897;SDS011;32646;50.958;6.258;2023-02-05T01:28:56;37.78;;;13.50;;
46897;SDS011;32646;50.958;6.258;2023-02-05T01:31:23;36.15;;;14.10;;
46897;SDS011;32646;50.958;6.258;2023-02-05T01:33:50;41.83;;;15.15;;
46897;SDS011;32646;50.958;6.258;2023-02-05T01:36:16;32.67;;;11.55;;
46897;SDS011;32646;50.958;6.258;2023-02-05T01:38:43;38.38;;;13.02;;
46897;SDS011;32646;50.958;6.258;2023-02-05T01:41:11;36.50;;;13.60;;
46897;SDS011;32646;50.958;6.258;2023-02-05T01:43:38;40.72;;;13.50;;
46897;SDS011;32646;50.958;6.258;2023-02-05T01:48:51;27.98;;;11.35;;
46897;SDS011;32646;50.958;6.258;2023-02-05T01:51:20;33.78;;;11.95;;
46897;SDS011;32646;50.958;6.258;2023-02-05T01:53:48;29.08;;;11.70;;
46897;SDS011;32646;50.958;6.258;2023-02-05T01:56:16;34.58;;;11.00;;
46897;SDS011;32646;50.958;6.258;2023-02-05T01:58:57;31.88;;;10.88;;
46897;SDS011;32646;50.958;6.258;2023-02-05T02:01:28;38.53;;;13.25;;
46897;SDS011;32646;50.958;6.258;2023-02-05T02:03:55;35.35;;;12.75;;
46897;SDS011;32646;50.958;6.258;2023-02-05T02:06:24;32.75;;;12.68;;
46897;SDS011;32646;50.958;6.258;2023-02-05T02:08:51;35.92;;;12.98;;
46897;SDS011;32646;50.958;6.258;2023-02-05T02:11:18;39.42;;;13.25;;
46897;SDS011;32646;50.958;6.258;2023-02-05T02:13:48;35.25;;;12.90;;
46897;SDS011;32646;50.958;6.258;2023-02-05T02:16:16;34.15;;;12.70;;
46897;SDS011;32646;50.958;6.258;2023-02-05T02:18:43;40.30;;;13.68;;
46897;SDS011;32646;50.958;6.258;2023-02-05T02:24:01;37.00;;;12.43;;
46897;SDS011;32646;50.958;6.258;2023-02-05T02:29:57;36.65;;;12.50;;
46897;SDS011;32646;50.958;6.258;2023-02-05T02:32:38;40.47;;;13.57;;
46897;SDS011;32646;50.958;6.258;2023-02-05T02:35:55;46.50;;;14.35;;
46897;SDS011;32646;50.958;6.258;2023-02-05T02:38:21;44.55;;;14.68;;
46897;SDS011;32646;50.958;6.258;2023-02-05T02:40:58;51.25;;;13.75;;
46897;SDS011;32646;50.958;6.258;2023-02-05T02:43:51;44.20;;;14.00;;
46897;SDS011;32646;50.958;6.258;2023-02-05T02:49:07;52.65;;;15.45;;
46897;SDS011;32646;50.958;6.258;2023-02-05T02:51:40;47.47;;;15.48;;
46897;SDS011;32646;50.958;6.258;2023-02-05T02:54:11;53.42;;;14.75;;
46897;SDS011;32646;50.958;6.258;2023-02-05T02:56:40;60.75;;;18.98;;
46897;SDS011;32646;50.958;6.258;2023-02-05T02:59:08;53.67;;;15.82;;
46897;SDS011;32646;50.958;6.258;2023-02-05T03:01:38;59.67;;;18.55;;
46897;SDS011;32646;50.958;6.258;2023-02-05T03:04:20;56.55;;;16.50;;
46897;SDS011;32646;50.958;6.258;2023-02-05T03:07:12;55.30;;;17.27;;
46897;SDS011;32646;50.958;6.258;2023-02-05T03:09:53;48.08;;;14.95;;
46897;SDS011;32646;50.958;6.258;2023-02-05T03:12:25;52.15;;;15.55;;
46897;SDS011;32646;50.958;6.258;2023-02-05T03:14:51;57.40;;;17.80;;
46897;SDS011;32646;50.958;6.258;2023-02-05T03:17:19;62.97;;;17.77;;
46897;SDS011;32646;50.958;6.258;2023-02-05T03:19:47;53.78;;;17.92;;
46897;SDS011;32646;50.958;6.258;2023-02-05T03:22:20;54.55;;;16.98;;
46897;SDS011;32646;50.958;6.258;2023-02-05T03:24:47;55.20;;;18.95;;
46897;SDS011;32646;50.958;6.258;2023-02-05T03:27:15;67.57;;;19.23;;
46897;SDS011;32646;50.958;6.258;2023-02-05T03:29:41;71.20;;;19.83;;
46897;SDS011;32646;50.958;6.258;2023-02-05T03:32:12;61.20;;;18.20;;
46897;SDS011;32646;50.958;6.258;2023-02-05T03:40:03;67.82;;;20.00;;
46897;SDS011;32646;50.958;6.258;2023-02-05T03:42:53;63.03;;;19.35;;
46897;SDS011;32646;50.958;6.258;2023-02-05T03:45:48;70.15;;;20.40;;
46897;SDS011;32646;50.958;6.258;2023-02-05T03:48:29;67.35;;;18.92;;
46897;SDS011;32646;50.958;6.258;2023-02-05T03:56:43;68.47;;;20.98;;
46897;SDS011;32646;50.958;6.258;2023-02-05T04:01:47;66.63;;;19.55;;
46897;SDS011;32646;50.958;6.258;2023-02-05T04:04:14;66.82;;;18.23;;
46897;SDS011;32646;50.958;6.258;2023-02-05T04:06:50;65.57;;;19.15;;
46897;SDS011;32646;50.958;6.258;2023-02-05T04:09:18;73.28;;;19.63;;
46897;SDS011;32646;50.958;6.258;2023-02-05T04:11:45;63.33;;;18.27;;
46897;SDS011;32646;50.958;6.258;2023-02-05T04:14:11;70.20;;;18.60;;
46897;SDS011;32646;50.958;6.258;2023-02-05T04:16:38;69.75;;;20.30;;
46897;SDS011;32646;50.958;6.258;2023-02-05T04:19:04;68.15;;;20.33;;
46897;SDS011;32646;50.958;6.258;2023-02-05T04:21:31;64.55;;;19.98;;
46897;SDS011;32646;50.958;6.258;2023-02-05T04:23:58;66.28;;;19.60;;
46897;SDS011;32646;50.958;6.258;2023-02-05T04:26:25;66.82;;;18.55;;
46897;SDS011;32646;50.958;6.258;2023-02-05T04:28:51;60.95;;;19.08;;
46897;SDS011;32646;50.958;6.258;2023-02-05T04:31:18;66.47;;;19.27;;
46897;SDS011;32646;50.958;6.258;2023-02-05T04:33:44;62.13;;;20.02;;
46897;SDS011;32646;50.958;6.258;2023-02-05T04:36:11;63.13;;;19.83;;
46897;SDS011;32646;50.958;6.258;2023-02-05T04:38:37;66.00;;;19.17;;
46897;SDS011;32646;50.958;6.258;2023-02-05T04:41:04;65.55;;;19.70;;
46897;SDS011;32646;50.958;6.258;2023-02-05T04:43:31;58.03;;;16.73;;
46897;SDS011;32646;50.958;6.258;2023-02-05T04:45:57;67.03;;;20.23;;
46897;SDS011;32646;50.958;6.258;2023-02-05T04:48:29;56.63;;;16.92;;
46897;SDS011;32646;50.958;6.258;2023-02-05T04:50:55;66.88;;;20.48;;
46897;SDS011;32646;50.958;6.258;2023-02-05T04:53:22;59.78;;;18.45;;
46897;SDS011;32646;50.958;6.258;2023-02-05T04:55:48;58.95;;;19.15;;
46897;SDS011;32646;50.958;6.258;2023-02-05T04:58:15;54.10;;;19.73;;
46897;SDS011;32646;50.958;6.258;2023-02-05T05:00:42;63.78;;;18.13;;
46897;SDS011;32646;50.958;6.258;2023-02-05T05:03:08;62.45;;;17.65;;
46897;SDS011;32646;50.958;6.258;2023-02-05T05:05:35;54.33;;;18.42;;
46897;SDS011;32646;50.958;6.258;2023-02-05T05:08:01;57.65;;;19.20;;
46897;SDS011;32646;50.958;6.258;2023-02-05T05:10:28;47.33;;;17.35;;
46897;SDS011;32646;50.958;6.258;2023-02-05T05:12:54;57.28;;;17.42;;
46897;SDS011;32646;50.958;6.258;2023-02-05T05:15:21;44.40;;;16.38;;
46897;SDS011;32646;50.958;6.258;2023-02-05T05:17:47;51.63;;;16.65;;
46897;SDS011;32646;50.958;6.258;2023-02-05T05:20:14;51.72;;;18.17;;
46897;SDS011;32646;50.958;6.258;2023-02-05T05:22:41;43.75;;;14.82;;
46897;SDS011;32646;50.958;6.258;2023-02-05T05:25:07;53.05;;;15.88;;
46897;SDS011;32646;50.958;6.258;2023-02-05T05:27:34;40.97;;;15.00;;
46897;SDS011;32646;50.958;6.258;2023-02-05T05:30:00;43.47;;;15.60;;
46897;SDS011;32646;50.958;6.258;2023-02-05T05:32:27;44.53;;;15.07;;
46897;SDS011;32646;50.958;6.258;2023-02-05T05:34:54;48.38;;;16.20;;
46897;SDS011;32646;50.958;6.258;2023-02-05T05:37:20;51.75;;;14.95;;
46897;SDS011;32646;50.958;6.258;2023-02-05T05:39:47;42.47;;;15.80;;
46897;SDS011;32646;50.958;6.258;2023-02-05T05:42:14;44.85;;;16.23;;
46897;SDS011;32646;50.958;6.258;2023-02-05T05:44:40;40.38;;;14.23;;
46897;SDS011;32646;50.958;6.258;2023-02-05T05:47:07;50.65;;;15.90;;
46897;SDS011;32646;50.958;6.258;2023-02-05T05:49:34;44.15;;;17.13;;
46897;SDS011;32646;50.958;6.258;2023-02-05T05:52:00;47.75;;;16.88;;
46897;SDS011;32646;50.958;6.258;2023-02-05T05:54:27;43.67;;;16.92;;
46897;SDS011;32646;50.958;6.258;2023-02-05T05:56:53;44.67;;;16.23;;
46897;SDS011;32646;50.958;6.258;2023-02-05T05:59:20;43.03;;;15.77;;
46897;SDS011;32646;50.958;6.258;2023-02-05T06:01:46;42.47;;;15.93;;
46897;SDS011;32646;50.958;6.258;2023-02-05T06:04:13;45.13;;;16.88;;
46897;SDS011;32646;50.958;6.258;2023-02-05T06:06:39;38.63;;;14.30;;
46897;SDS011;32646;50.958;6.258;2023-02-05T06:09:06;47.95;;;17.83;;
46897;SDS011;32646;50.958;6.258;2023-02-05T06:11:33;42.58;;;18.38;;
46897;SDS011;32646;50.958;6.258;2023-02-05T06:13:59;49.30;;;17.83;;
46897;SDS011;32646;50.958;6.258;2023-02-05T06:16:26;45.85;;;18.10;;
46897;SDS011;32646;50.958;6.258;2023-02-05T06:18:53;41.20;;;16.98;;
46897;SDS011;32646;50.958;6.258;2023-02-05T06:21:21;47.83;;;17.92;;
46897;SDS011;32646;50.958;6.258;2023-02-05T06:23:47;43.92;;;17.60;;
46897;SDS011;32646;50.958;6.258;2023-02-05T06:26:14;46.15;;;17.63;;
46897;SDS011;32646;50.958;6.258;2023-02-05T06:28:41;43.08;;;17.17;;
46897;SDS011;32646;50.958;6.258;2023-02-05T06:31:07;46.20;;;17.67;;
46897;SDS011;32646;50.958;6.258;2023-02-05T06:33:34;44.63;;;17.60;;
46897;SDS011;32646;50.958;6.258;2023-02-05T06:36:01;46.05;;;17.92;;
46897;SDS011;32646;50.958;6.258;2023-02-05T06:38:27;47.75;;;18.27;;
46897;SDS011;32646;50.958;6.258;2023-02-05T06:40:54;48.30;;;18.65;;
46897;SDS011;32646;50.958;6.258;2023-02-05T06:43:20;52.03;;;18.90;;
46897;SDS011;32646;50.958;6.258;2023-02-05T06:45:47;48.88;;;18.92;;
46897;SDS011;32646;50.958;6.258;2023-02-05T06:48:13;45.35;;;18.20;;
46897;SDS011;32646;50.958;6.258;2023-02-05T06:50:40;49.38;;;19.73;;
46897;SDS011;32646;50.958;6.258;2023-02-05T06:53:06;45.85;;;18.15;;
46897;SDS011;32646;50.958;6.258;2023-02-05T06:55:35;46.15;;;18.73;;
46897;SDS011;32646;50.958;6.258;2023-02-05T06:58:02;43.72;;;17.40;;
46897;SDS011;32646;50.958;6.258;2023-02-05T07:00:29;41.42;;;17.27;;
46897;SDS011;32646;50.958;6.258;2023-02-05T07:02:57;44.10;;;17.92;;
46897;SDS011;32646;50.958;6.258;2023-02-05T07:05:24;42.42;;;17.67;;
46897;SDS011;32646;50.958;6.258;2023-02-05T07:07:51;41.17;;;17.35;;
46897;SDS011;32646;50.958;6.258;2023-02-05T07:10:17;40.03;;;16.05;;
46897;SDS011;32646;50.958;6.258;2023-02-05T07:12:44;45.33;;;17.10;;
46897;SDS011;32646;50.958;6.258;2023-02-05T07:15:10;49.78;;;17.70;;
46897;SDS011;32646;50.958;6.258;2023-02-05T07:17:37;39.50;;;17.13;;
46897;SDS011;32646;50.958;6.258;2023-02-05T07:20:04;38.35;;;16.40;;
46897;SDS011;32646;50.958;6.258;2023-02-05T07:22:30;38.13;;;16.23;;
46897;SDS011;32646;50.958;6.258;2023-02-05T07:24:57;48.60;;;15.60;;
46897;SDS011;32646;50.958;6.258;2023-02-05T07:27:24;43.17;;;16.05;;
46897;SDS011;32646;50.958;6.258;2023-02-05T07:29:50;37.05;;;14.82;;
46897;SDS011;32646;50.958;6.258;2023-02-05T07:32:17;39.15;;;17.95;;
46897;SDS011;32646;50.958;6.258;2023-02-05T07:34:43;38.05;;;17.00;;
46897;SDS011;32646;50.958;6.258;2023-02-05T07:37:10;45.20;;;15.77;;
46897;SDS011;32646;50.958;6.258;2023-02-05T07:39:37;38.50;;;17.17;;
46897;SDS011;32646;50.958;6.258;2023-02-05T07:42:04;37.50;;;16.33;;
46897;SDS011;32646;50.958;6.258;2023-02-05T07:44:30;37.67;;;16.13;;
46897;SDS011;32646;50.958;6.258;2023-02-05T07:46:57;41.95;;;17.00;;
46897;SDS011;32646;50.958;6.258;2023-02-05T07:49:24;39.83;;;15.80;;
46897;SDS011;32646;50.958;6.258;2023-02-05T07:51:50;34.20;;;14.07;;
46897;SDS011;32646;50.958;6.258;2023-02-05T07:54:17;40.25;;;16.63;;
46897;SDS011;32646;50.958;6.258;2023-02-05T07:56:43;38.53;;;16.17;;
46897;SDS011;32646;50.958;6.258;2023-02-05T07:59:10;33.55;;;14.45;;
46897;SDS011;32646;50.958;6.258;2023-02-05T08:01:37;32.67;;;15.98;;
46897;SDS011;32646;50.958;6.258;2023-02-05T08:04:03;26.73;;;11.55;;
46897;SDS011;32646;50.958;6.258;2023-02-05T08:06:30;26.35;;;12.43;;
46897;SDS011;32646;50.958;6.258;2023-02-05T08:08:58;27.33;;;12.25;;
46897;SDS011;32646;50.958;6.258;2023-02-05T08:11:24;27.02;;;11.15;;
46897;SDS011;32646;50.958;6.258;2023-02-05T08:13:51;23.00;;;10.40;;
46897;SDS011;32646;50.958;6.258;2023-02-05T08:16:17;21.13;;;9.50;;
46897;SDS011;32646;50.958;6.258;2023-02-05T08:18:47;19.17;;;8.63;;
46897;SDS011;32646;50.958;6.258;2023-02-05T08:21:16;17.85;;;8.10;;
46897;SDS011;32646;50.958;6.258;2023-02-05T08:23:43;20.17;;;9.65;;
46897;SDS011;32646;50.958;6.258;2023-02-05T08:26:10;19.75;;;8.93;;
46897;SDS011;32646;50.958;6.258;2023-02-05T08:28:36;9.05;;;4.05;;
46897;SDS011;32646;50.958;6.258;2023-02-05T08:31:13;8.48;;;3.20;;
46897;SDS011;32646;50.958;6.258;2023-02-05T08:33:41;7.32;;;2.03;;
46897;SDS011;32646;50.958;6.258;2023-02-05T08:36:08;2.60;;;0.98;;
46897;SDS011;32646;50.958;6.258;2023-02-05T08:38:35;4.53;;;1.27;;
46897;SDS011;32646;50.958;6.258;2023-02-05T08:41:09;3.45;;;1.02;;
46897;SDS011;32646;50.958;6.258;2023-02-05T08:43:37;5.00;;;1.42;;
46897;SDS011;32646;50.958;6.258;2023-02-05T08:46:07;2.85;;;1.27;;
46897;SDS011;32646;50.958;6.258;2023-02-05T08:48:35;2.38;;;0.70;;
46897;SDS011;32646;50.958;6.258;2023-02-05T08:51:02;1.38;;;0.93;;
46897;SDS011;32646;50.958;6.258;2023-02-05T08:53:31;2.55;;;0.90;;
46897;SDS011;32646;50.958;6.258;2023-02-05T08:55:59;1.83;;;0.63;;
46897;SDS011;32646;50.958;6.258;2023-02-05T08:58:28;3.65;;;0.80;;
46897;SDS011;32646;50.958;6.258;2023-02-05T09:01:01;2.47;;;0.60;;
46897;SDS011;32646;50.958;6.258;2023-02-05T09:03:30;2.13;;;0.73;;
46897;SDS011;32646;50.958;6.258;2023-02-05T09:05:57;2.75;;;0.80;;
46897;SDS011;32646;50.958;6.258;2023-02-05T09:08:25;4.75;;;0.70;;
46897;SDS011;32646;50.958;6.258;2023-02-05T09:10:52;2.50;;;0.60;;
46897;SDS011;32646;50.958;6.258;2023-02-05T09:13:19;5.43;;;0.90;;
46897;SDS011;32646;50.958;6.258;2023-02-05T09:15:46;3.15;;;0.95;;
46897;SDS011;32646;50.958;6.258;2023-02-05T09:18:14;5.20;;;0.90;;
46897;SDS011;32646;50.958;6.258;2023-02-05T09:20:42;6.43;;;1.48;;
46897;SDS011;32646;50.958;6.258;2023-02-05T09:23:11;14.68;;;1.45;;
46897;SDS011;32646;50.958;6.258;2023-02-05T09:25:40;6.43;;;2.25;;
46897;SDS011;32646;50.958;6.258;2023-02-05T09:28:07;5.88;;;1.33;;
46897;SDS011;32646;50.958;6.258;2023-02-05T09:30:36;5.68;;;1.13;;
46897;SDS011;32646;50.958;6.258;2023-02-05T09:33:06;5.47;;;0.80;;
46897;SDS011;32646;50.958;6.258;2023-02-05T09:35:33;5.03;;;1.02;;
46897;SDS011;32646;50.958;6.258;2023-02-05T09:38:01;5.57;;;0.90;;
46897;SDS011;32646;50.958;6.258;2023-02-05T09:40:28;1.70;;;0.55;;
46897;SDS011;32646;50.958;6.258;2023-02-05T09:46:02;4.38;;;0.82;;
46897;SDS011;32646;50.958;6.258;2023-02-05T09:51:18;2.35;;;1.10;;
46897;SDS011;32646;50.958;6.258;2023-02-05T09:53:52;3.50;;;0.80;;
46897;SDS011;32646;50.958;6.258;2023-02-05T09:56:22;2.97;;;0.90;;
46897;SDS011;32646;50.958;6.258;2023-02-05T09:58:51;6.55;;;1.00;;
46897;SDS011;32646;50.958;6.258;2023-02-05T10:01:41;4.32;;;0.95;;
46897;SDS011;32646;50.958;6.258;2023-02-05T10:04:23;3.58;;;0.73;;
46897;SDS011;32646;50.958;6.258;2023-02-05T10:12:50;11.32;;;1.83;;
46897;SDS011;32646;50.958;6.258;2023-02-05T10:21:15;3.50;;;0.80;;
46897;SDS011;32646;50.958;6.258;2023-02-05T10:27:20;5.95;;;1.20;;
46897;SDS011;32646;50.958;6.258;2023-02-05T10:34:56;5.28;;;0.85;;
46897;SDS011;32646;50.958;6.258;2023-02-05T10:40:11;4.07;;;1.00;;
46897;SDS011;32646;50.958;6.258;2023-02-05T10:42:41;7.78;;;1.10;;
46897;SDS011;32646;50.958;6.258;2023-02-05T10:45:29;4.55;;;0.90;;
46897;SDS011;32646;50.958;6.258;2023-02-05T10:53:36;9.32;;;1.50;;
46897;SDS011;32646;50.958;6.258;2023-02-05T10:56:03;6.28;;;1.00;;
46897;SDS011;32646;50.958;6.258;2023-02-05T11:01:07;5.45;;;1.30;;
46897;SDS011;32646;50.958;6.258;2023-02-05T11:06:20;5.28;;;1.10;;
46897;SDS011;32646;50.958;6.258;2023-02-05T11:08:48;3.17;;;0.75;;
46897;SDS011;32646;50.958;6.258;2023-02-05T11:11:17;3.63;;;1.17;;
46897;SDS011;32646;50.958;6.258;2023-02-05T11:13:51;11.18;;;1.33;;
46897;SDS011;32646;50.958;6.258;2023-02-05T11:19:01;13.65;;;1.90;;
46897;SDS011;32646;50.958;6.258;2023-02-05T11:24:30;9.95;;;1.58;;
46897;SDS011;32646;50.958;6.258;2023-02-05T11:27:09;5.72;;;1.70;;
46897;SDS011;32646;50.958;6.258;2023-02-05T11:29:46;7.53;;;2.05;;
46897;SDS011;32646;50.958;6.258;2023-02-05T11:32:17;4.13;;;1.27;;
46897;SDS011;32646;50.958;6.258;2023-02-05T11:35:23;3.83;;;0.80;;
46897;SDS011;32646;50.958;6.258;2023-02-05T11:38:06;12.77;;;4.28;;
46897;SDS011;32646;50.958;6.258;2023-02-05T11:40:33;8.05;;;2.28;;
46897;SDS011;32646;50.958;6.258;2023-02-05T11:43:13;12.73;;;4.72;;
46897;SDS011;32646;50.958;6.258;2023-02-05T11:45:48;7.15;;;2.13;;
46897;SDS011;32646;50.958;6.258;2023-02-05T11:48:21;12.88;;;2.10;;
46897;SDS011;32646;50.958;6.258;2023-02-05T11:51:00;10.00;;;2.33;;
46897;SDS011;32646;50.958;6.258;2023-02-05T11:53:28;8.90;;;1.80;;
46897;SDS011;32646;50.958;6.258;2023-02-05T11:55:57;15.88;;;1.83;;
46897;SDS011;32646;50.958;6.258;2023-02-05T11:58:28;6.05;;;1.90;;
46897;SDS011;32646;50.958;6.258;2023-02-05T12:01:19;7.65;;;1.60;;
46897;SDS011;32646;50.958;6.258;2023-02-05T12:03:57;4.95;;;1.48;;
46897;SDS011;32646;50.958;6.258;2023-02-05T12:09:24;7.78;;;1.75;;
46897;SDS011;32646;50.958;6.258;2023-02-05T12:14:30;6.72;;;1.60;;
46897;SDS011;32646;50.958;6.258;2023-02-05T12:20:12;9.80;;;1.80;;
46897;SDS011;32646;50.958;6.258;2023-02-05T12:28:31;6.97;;;1.67;;
46897;SDS011;32646;50.958;6.258;2023-02-05T12:42:25;6.80;;;0.70;;
46897;SDS011;32646;50.958;6.258;2023-02-05T12:45:06;7.38;;;1.42;;
46897;SDS011;32646;50.958;6.258;2023-02-05T12:50:18;5.28;;;1.38;;
46897;SDS011;32646;50.958;6.258;2023-02-05T12:53:00;7.05;;;1.60;;
46897;SDS011;32646;50.958;6.258;2023-02-05T12:58:46;5.47;;;1.88;;
46897;SDS011;32646;50.958;6.258;2023-02-05T13:01:17;54.97;;;16.60;;
46897;SDS011;32646;50.958;6.258;2023-02-05T13:06:28;3.83;;;1.00;;
46897;SDS011;32646;50.958;6.258;2023-02-05T13:11:45;5.65;;;1.48;;
46897;SDS011;32646;50.958;6.258;2023-02-05T13:14:20;8.63;;;2.17;;
46897;SDS011;32646;50.958;6.258;2023-02-05T13:16:51;4.90;;;2.20;;
46897;SDS011;32646;50.958;6.258;2023-02-05T13:19:25;7.93;;;1.48;;
46897;SDS011;32646;50.958;6.258;2023-02-05T13:21:59;10.07;;;1.75;;
46897;SDS011;32646;50.958;6.258;2023-02-05T13:24:35;3.42;;;0.80;;
46897;SDS011;32646;50.958;6.258;2023-02-05T13:27:41;7.85;;;1.65;;
46897;SDS011;32646;50.958;6.258;2023-02-05T13:30:03;10.05;;;1.55;;
46897;SDS011;32646;50.958;6.258;2023-02-05T13:32:36;7.32;;;1.00;;
46897;SDS011;32646;50.958;6.258;2023-02-05T13:35:06;8.18;;;1.25;;
46897;SDS011;32646;50.958;6.258;2023-02-05T13:37:48;5.75;;;1.70;;
46897;SDS011;32646;50.958;6.258;2023-02-05T13:41:14;4.18;;;1.20;;
46897;SDS011;32646;50.958;6.258;2023-02-05T14:00:42;6.03;;;1.88;;
46897;SDS011;32646;50.958;6.258;2023-02-05T14:03:20;3.67;;;0.93;;
46897;SDS011;32646;50.958;6.258;2023-02-05T14:06:16;4.72;;;1.02;;
46897;SDS011;32646;50.958;6.258;2023-02-05T14:08:45;5.65;;;1.50;;
46897;SDS011;32646;50.958;6.258;2023-02-05T14:11:12;6.38;;;0.90;;
46897;SDS011;32646;50.958;6.258;2023-02-05T14:13:39;9.75;;;1.52;;
46897;SDS011;32646;50.958;6.258;2023-02-05T14:23:57;8.73;;;1.63;;
46897;SDS011;32646;50.958;6.258;2023-02-05T14:32:06;6.10;;;2.42;;
46897;SDS011;32646;50.958;6.258;2023-02-05T14:35:02;6.78;;;2.28;;
46897;SDS011;32646;50.958;6.258;2023-02-05T14:37:31;5.18;;;1.15;;
46897;SDS011;32646;50.958;6.258;2023-02-05T14:40:10;7.63;;;2.38;;
46897;SDS011;32646;50.958;6.258;2023-02-05T14:42:53;12.95;;;2.15;;
46897;SDS011;32646;50.958;6.258;2023-02-05T14:45:34;6.43;;;2.05;;
46897;SDS011;32646;50.958;6.258;2023-02-05T14:48:19;10.52;;;2.03;;
46897;SDS011;32646;50.958;6.258;2023-02-05T14:53:36;12.93;;;1.90;;
46897;SDS011;32646;50.958;6.258;2023-02-05T14:56:03;9.10;;;1.73;;
46897;SDS011;32646;50.958;6.258;2023-02-05T15:03:59;7.97;;;1.50;;
46897;SDS011;32646;50.958;6.258;2023-02-05T15:06:28;7.88;;;1.40;;
46897;SDS011;32646;50.958;6.258;2023-02-05T15:09:19;6.00;;;1.25;;
46897;SDS011;32646;50.958;6.258;2023-02-05T15:16:47;10.45;;;1.95;;
46897;SDS011;32646;50.958;6.258;2023-02-05T15:19:34;8.68;;;2.10;;
46897;SDS011;32646;50.958;6.258;2023-02-05T15:22:10;7.25;;;2.15;;
46897;SDS011;32646;50.958;6.258;2023-02-05T15:25:00;14.82;;;2.42;;
46897;SDS011;32646;50.958;6.258;2023-02-05T15:27:37;13.18;;;2.83;;
46897;SDS011;32646;50.958;6.258;2023-02-05T15:30:08;10.02;;;1.95;;
46897;SDS011;32646;50.958;6.258;2023-02-05T15:32:44;10.35;;;2.85;;
46897;SDS011;32646;50.958;6.258;2023-02-05T15:35:18;7.00;;;1.90;;
46897;SDS011;32646;50.958;6.258;2023-02-05T15:37:48;9.25;;;2.55;;
46897;SDS011;32646;50.958;6.258;2023-02-05T15:40:22;13.65;;;2.22;;
46897;SDS011;32646;50.958;6.258;2023-02-05T15:42:58;10.75;;;2.70;;
46897;SDS011;32646;50.958;6.258;2023-02-05T15:45:41;7.32;;;1.75;;
46897;SDS011;32646;50.958;6.258;2023-02-05T15:50:45;9.82;;;2.13;;
46897;SDS011;32646;50.958;6.258;2023-02-05T15:53:39;12.18;;;3.15;;
46897;SDS011;32646;50.958;6.258;2023-02-05T15:56:21;6.50;;;1.55;;
46897;SDS011;32646;50.958;6.258;2023-02-05T16:01:36;7.90;;;1.80;;
46897;SDS011;32646;50.958;6.258;2023-02-05T16:06:47;7.20;;;1.25;;
46897;SDS011;32646;50.958;6.258;2023-02-05T16:09:15;10.18;;;2.35;;
46897;SDS011;32646;50.958;6.258;2023-02-05T16:11:43;8.27;;;2.40;;
46897;SDS011;32646;50.958;6.258;2023-02-05T16:19:23;9.38;;;2.30;;
46897;SDS011;32646;50.958;6.258;2023-02-05T16:21:56;8.80;;;1.85;;
46897;SDS011;32646;50.958;6.258;2023-02-05T16:24:29;8.13;;;1.50;;
46897;SDS011;32646;50.958;6.258;2023-02-05T16:27:01;9.80;;;1.88;;
46897;SDS011;32646;50.958;6.258;2023-02-05T16:29:44;9.70;;;2.03;;
46897;SDS011;32646;50.958;6.258;2023-02-05T16:34:54;8.60;;;1.88;;
46897;SDS011;32646;50.958;6.258;2023-02-05T16:37:23;24.20;;;4.35;;
46897;SDS011;32646;50.958;6.258;2023-02-05T16:39:53;8.95;;;1.83;;
46897;SDS011;32646;50.958;6.258;2023-02-05T16:47:33;13.35;;;2.10;;
46897;SDS011;32646;50.958;6.258;2023-02-05T16:50:01;8.52;;;1.50;;
46897;SDS011;32646;50.958;6.258;2023-02-05T16:53:17;5.80;;;1.55;;
46897;SDS011;32646;50.958;6.258;2023-02-05T16:55:47;10.65;;;1.35;;
46897;SDS011;32646;50.958;6.258;2023-02-05T16:58:20;12.18;;;2.63;;
46897;SDS011;32646;50.958;6.258;2023-02-05T17:00:50;9.70;;;1.33;;
46897;SDS011;32646;50.958;6.258;2023-02-05T17:03:28;7.55;;;2.20;;
46897;SDS011;32646;50.958;6.258;2023-02-05T17:06:01;9.20;;;1.67;;
46897;SDS011;32646;50.958;6.258;2023-02-05T17:08:32;14.35;;;2.92;;
46897;SDS011;32646;50.958;6.258;2023-02-05T17:11:02;6.50;;;1.75;;
46897;SDS011;32646;50.958;6.258;2023-02-05T17:13:40;8.80;;;1.70;;
46897;SDS011;32646;50.958;6.258;2023-02-05T17:18:55;14.27;;;2.25;;
46897;SDS011;32646;50.958;6.258;2023-02-05T17:21:27;13.23;;;2.83;;
46897;SDS011;32646;50.958;6.258;2023-02-05T17:23:58;11.38;;;2.33;;
46897;SDS011;32646;50.958;6.258;2023-02-05T17:26:27;12.70;;;2.80;;
46897;SDS011;32646;50.958;6.258;2023-02-05T17:28:57;9.48;;;2.10;;
46897;SDS011;32646;50.958;6.258;2023-02-05T17:31:26;10.90;;;2.90;;
46897;SDS011;32646;50.958;6.258;2023-02-05T17:33:55;9.23;;;2.28;;
46897;SDS011;32646;50.958;6.258;2023-02-05T17:36:23;9.65;;;2.53;;
46897;SDS011;32646;50.958;6.258;2023-02-05T17:38:50;11.35;;;2.83;;
46897;SDS011;32646;50.958;6.258;2023-02-05T17:41:18;10.77;;;2.55;;
46897;SDS011;32646;50.958;6.258;2023-02-05T17:43:47;14.35;;;2.38;;
46897;SDS011;32646;50.958;6.258;2023-02-05T17:46:13;12.85;;;2.17;;